North Woods Beach, Wisconsin
Current Conditions -  °F | °C
As of 7:53 AM on Tuesday 21 Oct 2014 (Local Time) from KHYR Reporting Station
Overcast Overcast  
Wind Chill: 42°   Ceiling: 2100
Heat Index: 42°   Visibility: 10mi
Dew Point: 34°   Wind: 3mph
Humidity: 73%   Direction: 60°ENE
Pressure: 30.22"   Gusts: NA
Location:  46.0387°N, 91.2627°W
Report Text: KHYR 211253Z AUTO 06003KT 10SM OVC021 06/01 A3022 RMK AO2 SLP242 T00560011
Loading
Personal Weather Stations






























Interactive Weather Map
Tropical Storm Tracking
New forecast layout! Learn more

10-Day Weather Forecast

Advertisements
Track Severe Weather on mobile